createdAt,value
2022-10-20T00:00:50.396Z,4.85
2022-10-20T00:02:52.749Z,4.83
2022-10-20T00:04:54.851Z,4.84
2022-10-20T00:06:56.950Z,4.82
2022-10-20T00:09:03.874Z,4.76
2022-10-20T00:11:06.547Z,4.78
2022-10-20T00:13:08.815Z,4.81
2022-10-20T00:15:10.918Z,4.85
2022-10-20T00:17:12.922Z,4.89
2022-10-20T00:19:15.045Z,4.93
2022-10-20T00:21:18.673Z,4.96
2022-10-20T00:23:21.171Z,4.90
2022-10-20T00:25:23.242Z,4.86
2022-10-20T00:27:25.238Z,4.90
2022-10-20T00:29:27.235Z,4.88
2022-10-20T00:31:30.363Z,4.93
2022-10-20T00:33:33.369Z,4.93
2022-10-20T00:35:38.694Z,4.97
2022-10-20T00:37:40.729Z,5.01
2022-10-20T00:39:42.814Z,4.97
2022-10-20T00:41:44.856Z,4.96
2022-10-20T00:43:57.554Z,4.93
2022-10-20T00:45:59.540Z,4.89
2022-10-20T00:48:14.504Z,4.95
2022-10-20T00:50:29.768Z,4.96
2022-10-20T00:52:32.504Z,4.95
2022-10-20T00:54:35.002Z,4.98
2022-10-20T00:56:40.754Z,5.02
2022-10-20T00:58:43.963Z,5.02
2022-10-20T01:00:48.610Z,4.98
2022-10-20T01:02:53.104Z,4.94
2022-10-20T01:04:55.161Z,4.99
2022-10-20T01:06:58.098Z,4.95
2022-10-20T01:09:00.891Z,4.95
2022-10-20T01:11:18.297Z,4.99
2022-10-20T01:14:02.819Z,4.97
2022-10-20T01:16:45.997Z,4.97
2022-10-20T01:19:23.580Z,4.96
2022-10-20T01:21:43.523Z,4.99
2022-10-20T01:24:12.965Z,5.03
2022-10-20T01:26:36.650Z,5.09
2022-10-20T01:28:55.235Z,5.15
2022-10-20T01:31:00.328Z,5.22
2022-10-20T01:33:16.594Z,5.28
2022-10-20T01:35:25.707Z,5.30
2022-10-20T01:37:34.516Z,5.33
2022-10-20T01:39:54.979Z,5.31
2022-10-20T01:42:04.296Z,5.32
2022-10-20T01:44:11.493Z,5.25
2022-10-20T01:46:15.911Z,5.22
2022-10-20T01:48:21.845Z,5.20
2022-10-20T01:50:25.138Z,5.16
2022-10-20T01:52:29.288Z,5.16
2022-10-20T01:54:31.507Z,5.16
2022-10-20T01:56:51.775Z,5.13
2022-10-20T01:59:14.743Z,5.11
2022-10-20T02:01:31.462Z,5.03
2022-10-20T02:03:46.925Z,4.90
2022-10-20T02:06:08.044Z,4.95
2022-10-20T02:08:26.628Z,4.92
2022-10-20T02:10:37.180Z,4.91
2022-10-20T02:12:43.736Z,4.93
2022-10-20T02:15:08.301Z,4.91
2022-10-20T02:17:15.526Z,4.86
2022-10-20T02:19:21.137Z,4.82
2022-10-20T02:21:23.474Z,4.79
2022-10-20T02:23:25.593Z,4.80
2022-10-20T02:25:30.614Z,4.76
2022-10-20T02:27:37.576Z,4.73
2022-10-20T02:29:45.162Z,4.74
2022-10-20T02:31:47.804Z,4.72
2022-10-20T02:33:50.700Z,4.71
2022-10-20T02:35:58.162Z,4.74
2022-10-20T02:38:00.802Z,4.71
2022-10-20T02:40:03.345Z,4.67
2022-10-20T02:42:06.409Z,4.72
2022-10-20T02:44:08.516Z,4.67
2022-10-20T02:46:10.996Z,4.63
2022-10-20T02:48:12.824Z,4.64
2022-10-20T02:50:14.947Z,4.70
2022-10-20T02:52:17.049Z,4.74
2022-10-20T02:54:19.296Z,4.72
2022-10-20T02:56:24.492Z,4.69
2022-10-20T02:58:28.725Z,4.74
2022-10-20T03:00:31.345Z,4.74
2022-10-20T03:02:33.778Z,4.76
2022-10-20T03:04:35.687Z,4.70
2022-10-20T03:06:37.745Z,4.63
2022-10-20T03:08:39.854Z,4.65
2022-10-20T03:10:42.923Z,4.66
2022-10-20T03:12:45.078Z,4.64
2022-10-20T03:14:47.111Z,4.63
2022-10-20T03:16:49.118Z,4.64
2022-10-20T03:18:51.514Z,4.65
2022-10-20T03:20:54.562Z,4.65
2022-10-20T03:22:56.620Z,4.63
2022-10-20T03:24:58.660Z,4.62
2022-10-20T03:27:00.747Z,4.69
2022-10-20T03:29:02.937Z,4.72
2022-10-20T03:31:05.191Z,4.68
2022-10-20T03:33:07.261Z,4.73
2022-10-20T03:35:09.907Z,4.73
2022-10-20T03:37:12.075Z,4.74
2022-10-20T03:39:14.093Z,4.71
2022-10-20T03:41:16.729Z,4.73
2022-10-20T03:43:18.839Z,4.78
2022-10-20T03:45:30.434Z,4.80
2022-10-20T03:47:32.474Z,4.86
2022-10-20T03:49:34.714Z,4.94
2022-10-20T03:51:36.812Z,4.99
2022-10-20T03:53:38.831Z,5.00
2022-10-20T03:55:40.896Z,4.99
2022-10-20T03:57:43.453Z,5.07
2022-10-20T03:59:45.627Z,5.05
2022-10-20T04:01:50.508Z,5.07
2022-10-20T04:03:52.795Z,5.07
2022-10-20T04:05:58.131Z,5.09
2022-10-20T04:08:00.225Z,5.03
2022-10-20T04:10:02.483Z,5.07
2022-10-20T04:12:05.602Z,5.03
2022-10-20T04:14:07.770Z,5.10
2022-10-20T04:16:10.114Z,5.05
2022-10-20T04:18:12.232Z,5.11
2022-10-20T04:20:14.332Z,5.13
2022-10-20T04:22:16.588Z,5.17
2022-10-20T04:24:18.710Z,5.17
2022-10-20T04:26:20.780Z,5.20
2022-10-20T04:28:22.929Z,5.19
2022-10-20T04:30:24.940Z,5.18
2022-10-20T04:32:27.067Z,5.23
2022-10-20T04:34:29.217Z,5.24
2022-10-20T04:36:31.422Z,5.31
2022-10-20T04:38:34.638Z,5.40
2022-10-20T04:40:36.784Z,5.48
2022-10-20T04:42:38.830Z,5.53
2022-10-20T04:44:40.953Z,5.48
2022-10-20T04:46:43.109Z,5.48
2022-10-20T04:48:45.832Z,5.25
2022-10-20T04:50:47.953Z,5.20
2022-10-20T04:52:51.446Z,4.93
2022-10-20T04:54:53.639Z,5.03
2022-10-20T04:56:56.356Z,5.07
2022-10-20T04:58:59.562Z,5.07
2022-10-20T05:01:09.754Z,5.05
2022-10-20T05:03:12.369Z,4.95
2022-10-20T05:05:14.613Z,5.05
2022-10-20T05:07:17.296Z,4.88
2022-10-20T05:09:19.422Z,4.90
2022-10-20T05:11:23.642Z,4.88
2022-10-20T05:13:26.025Z,4.89
2022-10-20T05:15:28.191Z,4.86
2022-10-20T05:17:31.133Z,4.91
2022-10-20T05:19:33.154Z,5.02
2022-10-20T05:21:35.593Z,5.05
2022-10-20T05:23:39.529Z,5.12
2022-10-20T05:25:41.657Z,5.15
2022-10-20T05:27:43.717Z,5.22
2022-10-20T05:29:45.808Z,5.24
2022-10-20T05:31:50.622Z,5.26
2022-10-20T05:33:56.919Z,5.18
2022-10-20T05:35:59.242Z,5.18
2022-10-20T05:38:01.305Z,5.17
2022-10-20T05:40:05.583Z,5.21
2022-10-20T05:42:10.167Z,5.25
2022-10-20T05:44:13.272Z,5.32
2022-10-20T05:46:15.715Z,5.37
2022-10-20T05:48:17.846Z,5.36
2022-10-20T05:50:19.919Z,5.30
2022-10-20T05:52:22.628Z,5.34
2022-10-20T05:54:24.788Z,5.18
2022-10-20T05:56:28.364Z,5.03
2022-10-20T05:58:30.699Z,4.84
2022-10-20T06:00:41.829Z,4.67
2022-10-20T06:02:44.280Z,4.62
2022-10-20T06:04:46.298Z,4.68
2022-10-20T06:06:49.223Z,4.67
2022-10-20T06:08:51.572Z,4.57
2022-10-20T06:10:56.583Z,4.41
2022-10-20T06:12:59.059Z,4.29
2022-10-20T06:15:01.370Z,4.27
2022-10-20T06:17:05.136Z,4.34
2022-10-20T06:19:07.440Z,4.35
2022-10-20T06:21:16.048Z,4.39
2022-10-20T06:23:18.111Z,4.38
2022-10-20T06:25:22.504Z,4.25
2022-10-20T06:27:28.939Z,4.27
2022-10-20T06:29:33.955Z,4.39
2022-10-20T06:31:41.783Z,4.40
2022-10-20T06:33:44.850Z,4.43
2022-10-20T06:35:47.257Z,4.43
2022-10-20T06:37:51.870Z,4.38
2022-10-20T06:39:53.856Z,4.40
2022-10-20T06:41:56.022Z,4.56
2022-10-20T06:46:02.509Z,4.48
2022-10-20T06:48:05.130Z,4.61
2022-10-20T06:50:07.918Z,4.82
2022-10-20T06:54:22.000Z,4.86
2022-10-20T06:56:25.857Z,5.03
2022-10-20T06:58:29.152Z,4.97
2022-10-20T07:00:31.773Z,5.14
2022-10-20T07:02:39.576Z,5.24
2022-10-20T07:04:41.898Z,5.28
2022-10-20T07:06:47.193Z,5.47
2022-10-20T07:08:51.186Z,5.50
2022-10-20T07:11:05.220Z,5.80
2022-10-20T07:13:07.243Z,5.89
2022-10-20T07:15:09.749Z,6.10
2022-10-20T07:17:13.305Z,6.47
2022-10-20T07:19:15.449Z,6.45
2022-10-20T07:21:21.035Z,6.63
2022-10-20T07:23:25.028Z,6.82
2022-10-20T07:25:27.218Z,6.94
2022-10-20T07:27:30.589Z,7.34
2022-10-20T07:29:36.793Z,7.65
2022-10-20T07:31:42.223Z,7.70
2022-10-20T07:33:56.511Z,7.68
2022-10-20T07:36:18.501Z,7.72
2022-10-20T07:38:20.689Z,7.76
2022-10-20T07:42:30.289Z,7.13
2022-10-20T07:44:32.192Z,7.02
2022-10-20T07:46:34.226Z,6.97
2022-10-20T07:48:36.823Z,7.03
2022-10-20T07:50:40.513Z,6.84
2022-10-20T07:52:50.844Z,6.60
2022-10-20T07:55:01.620Z,6.36
2022-10-20T07:57:15.379Z,6.40
2022-10-20T07:59:18.468Z,6.35
2022-10-20T08:01:20.918Z,6.32
2022-10-20T08:03:26.307Z,6.09
2022-10-20T08:05:29.753Z,6.10
2022-10-20T08:07:31.968Z,6.17
2022-10-20T08:09:34.243Z,6.15
2022-10-20T08:11:38.072Z,6.14
2022-10-20T08:13:41.224Z,6.19
2022-10-20T08:15:44.515Z,6.24
2022-10-20T08:17:46.814Z,6.33
2022-10-20T08:20:08.835Z,6.60
2022-10-20T08:22:11.021Z,7.13
2022-10-20T08:24:13.193Z,7.40
2022-10-20T08:26:23.438Z,7.56
2022-10-20T08:28:26.342Z,7.42
2022-10-20T08:30:30.756Z,7.38
2022-10-20T08:32:32.937Z,7.25
2022-10-20T08:34:35.265Z,7.15
2022-10-20T08:36:37.471Z,7.00
2022-10-20T08:38:40.586Z,7.00
2022-10-20T08:40:43.475Z,6.91
2022-10-20T08:42:45.895Z,6.97
2022-10-20T08:44:49.102Z,6.90
2022-10-20T08:46:51.358Z,6.99
2022-10-20T08:48:53.546Z,7.08
2022-10-20T08:50:56.231Z,7.28
2022-10-20T08:53:01.034Z,7.46
2022-10-20T08:55:05.748Z,7.59
2022-10-20T08:57:26.743Z,7.36
2022-10-20T08:59:39.812Z,7.13
2022-10-20T09:01:42.696Z,6.83
2022-10-20T09:04:05.157Z,6.76
2022-10-20T09:06:14.806Z,6.63
2022-10-20T09:08:17.584Z,6.47
2022-10-20T09:10:35.930Z,6.35
2022-10-20T09:12:41.769Z,6.36
2022-10-20T09:14:44.115Z,6.35
2022-10-20T09:16:59.925Z,6.35
2022-10-20T09:19:03.227Z,6.33
2022-10-20T09:21:05.184Z,6.38
2022-10-20T09:23:35.487Z,6.39
2022-10-20T09:25:36.249Z,6.25
2022-10-20T09:27:43.128Z,6.23
2022-10-20T09:29:45.664Z,6.40
2022-10-20T09:31:52.179Z,6.48
2022-10-20T09:33:54.586Z,6.51
2022-10-20T09:36:04.968Z,6.62
2022-10-20T09:38:20.035Z,6.61
2022-10-20T09:40:23.401Z,6.53
2022-10-20T09:42:34.750Z,6.54
2022-10-20T09:44:52.782Z,6.59
2022-10-20T09:46:55.266Z,6.19
2022-10-20T09:49:00.020Z,6.14
2022-10-20T09:51:02.970Z,5.98
2022-10-20T09:53:17.127Z,6.10
2022-10-20T09:55:30.236Z,6.21
2022-10-20T09:57:32.510Z,6.29
2022-10-20T09:59:36.675Z,6.28
2022-10-20T10:01:54.040Z,6.24
2022-10-20T10:04:02.145Z,6.30
2022-10-20T10:06:28.073Z,6.38
2022-10-20T10:08:44.952Z,6.39
2022-10-20T10:10:59.714Z,6.43
2022-10-20T10:15:24.510Z,6.31
2022-10-20T10:17:38.674Z,6.40
2022-10-20T10:19:52.478Z,6.44
2022-10-20T10:22:00.596Z,6.38
2022-10-20T10:24:04.704Z,6.44
2022-10-20T10:26:36.807Z,6.44
2022-10-20T10:28:40.773Z,6.42
2022-10-20T10:30:46.832Z,6.47
2022-10-20T10:32:51.684Z,6.49
2022-10-20T10:35:23.063Z,6.54
2022-10-20T10:37:25.193Z,6.40
2022-10-20T10:39:33.620Z,6.39
2022-10-20T10:42:04.234Z,6.47
2022-10-20T10:44:18.150Z,6.47
2022-10-20T10:46:26.971Z,6.47
2022-10-20T10:48:49.714Z,6.36
2022-10-20T10:50:54.606Z,6.29
2022-10-20T10:53:29.975Z,6.39
2022-10-20T10:55:48.705Z,6.44
2022-10-20T10:58:39.682Z,6.57
2022-10-20T11:00:51.066Z,6.60
2022-10-20T11:03:00.119Z,6.63
2022-10-20T11:05:33.062Z,6.56
2022-10-20T11:08:02.799Z,6.51
2022-10-20T11:10:35.059Z,6.45
2022-10-20T11:13:06.730Z,6.42
2022-10-20T11:15:27.612Z,6.42
2022-10-20T11:17:35.797Z,6.40
2022-10-20T11:19:49.752Z,6.37
2022-10-20T11:22:36.039Z,6.31
2022-10-20T11:24:41.414Z,6.25
2022-10-20T11:26:47.676Z,6.23
2022-10-20T11:28:54.386Z,6.24
2022-10-20T11:30:59.448Z,6.20
2022-10-20T11:33:09.259Z,6.17
2022-10-20T11:35:33.741Z,6.17
2022-10-20T11:37:47.862Z,6.22
2022-10-20T11:40:07.779Z,6.23
2022-10-20T11:42:51.559Z,6.27
2022-10-20T11:44:55.847Z,6.22
2022-10-20T11:47:05.565Z,6.30
2022-10-20T11:49:12.333Z,6.36
2022-10-20T11:51:26.451Z,6.42
2022-10-20T11:53:59.655Z,6.43
2022-10-20T11:56:33.207Z,6.24
2022-10-20T11:58:41.175Z,6.08
2022-10-20T12:01:08.118Z,6.11
2022-10-20T12:03:47.090Z,6.15
2022-10-20T12:06:27.208Z,6.16
2022-10-20T12:09:00.233Z,6.13
2022-10-20T12:11:05.275Z,6.11
2022-10-20T12:13:40.030Z,6.18
2022-10-20T12:15:53.886Z,6.22
2022-10-20T12:18:07.511Z,6.25
2022-10-20T12:20:21.898Z,6.15
2022-10-20T12:22:24.253Z,6.09
2022-10-20T12:24:58.244Z,6.05
2022-10-20T12:27:04.299Z,6.09
2022-10-20T12:29:33.032Z,6.15
2022-10-20T12:32:19.280Z,6.23
2022-10-20T12:35:18.810Z,6.30
2022-10-20T12:37:32.827Z,6.35
2022-10-20T12:39:52.702Z,6.39
2022-10-20T12:41:56.748Z,6.34
2022-10-20T12:44:21.674Z,6.44
2022-10-20T12:46:42.965Z,6.30
2022-10-20T12:48:48.587Z,6.37
2022-10-20T12:50:52.391Z,6.34
2022-10-20T12:52:54.925Z,6.26
2022-10-20T12:55:04.867Z,6.24
2022-10-20T12:57:41.872Z,6.25
2022-10-20T12:59:44.198Z,6.21
2022-10-20T13:02:11.199Z,6.23
2022-10-20T13:04:52.001Z,6.20
2022-10-20T13:06:54.207Z,6.17
2022-10-20T13:09:05.083Z,6.13
2022-10-20T13:11:38.143Z,6.14
2022-10-20T13:14:12.225Z,6.09
2022-10-20T13:16:21.487Z,6.10
2022-10-20T13:18:32.929Z,6.09
2022-10-20T13:20:55.097Z,6.06
2022-10-20T13:25:06.742Z,5.95
2022-10-20T13:27:10.005Z,5.91
2022-10-20T13:29:18.916Z,5.87
2022-10-20T13:31:39.772Z,5.81
2022-10-20T13:34:07.594Z,5.65
2022-10-20T13:36:42.647Z,5.67
2022-10-20T13:39:02.356Z,5.67
2022-10-20T13:41:38.087Z,5.62
2022-10-20T13:43:48.668Z,5.59
2022-10-20T13:46:11.661Z,5.56
2022-10-20T13:48:59.151Z,5.53
2022-10-20T13:51:11.211Z,5.48
2022-10-20T13:53:37.045Z,5.39
2022-10-20T13:56:04.193Z,5.25
2022-10-20T13:58:20.381Z,5.12
2022-10-20T14:00:24.932Z,4.99
2022-10-20T14:02:30.680Z,4.86
2022-10-20T14:04:37.111Z,4.73
2022-10-20T14:06:39.557Z,4.58
2022-10-20T14:08:44.205Z,4.47
2022-10-20T14:11:06.874Z,4.34
2022-10-20T14:13:14.309Z,4.18
2022-10-20T14:15:27.145Z,4.09
2022-10-20T14:17:30.283Z,4.00
2022-10-20T14:19:33.744Z,3.94
2022-10-20T14:21:49.381Z,3.89
2022-10-20T14:23:52.638Z,3.78
2022-10-20T14:25:56.269Z,3.69
2022-10-20T14:28:00.354Z,3.62
2022-10-20T14:30:09.456Z,3.53
2022-10-20T14:32:22.301Z,3.47
2022-10-20T14:34:31.255Z,3.38
2022-10-20T14:36:36.777Z,3.29
2022-10-20T14:38:39.213Z,3.23
2022-10-20T14:40:41.405Z,3.14
2022-10-20T14:42:47.598Z,3.04
2022-10-20T14:44:51.453Z,3.00
2022-10-20T14:46:56.867Z,2.89
2022-10-20T14:49:00.835Z,2.85
2022-10-20T14:51:23.479Z,2.83
2022-10-20T14:53:34.944Z,2.76
2022-10-20T14:55:37.473Z,2.76
2022-10-20T14:57:43.317Z,2.74
2022-10-20T14:59:59.274Z,2.72
2022-10-20T15:02:08.337Z,2.70
2022-10-20T15:04:26.743Z,2.73
2022-10-20T15:06:28.900Z,2.74
2022-10-20T15:08:31.180Z,2.76
2022-10-20T15:10:33.388Z,2.73
2022-10-20T15:12:49.201Z,2.74
2022-10-20T15:14:53.961Z,2.65
2022-10-20T15:16:56.160Z,2.72
2022-10-20T15:19:30.072Z,2.74
2022-10-20T15:21:32.852Z,2.64
2022-10-20T15:23:35.028Z,2.66
2022-10-20T15:25:47.528Z,2.68
2022-10-20T15:27:50.412Z,2.64
2022-10-20T15:29:52.807Z,2.51
2022-10-20T15:31:55.025Z,2.58
2022-10-20T15:33:58.873Z,2.58
2022-10-20T15:36:01.929Z,2.61
2022-10-20T15:38:04.083Z,2.56
2022-10-20T15:40:06.717Z,2.70
2022-10-20T15:42:12.147Z,2.76
2022-10-20T15:44:17.588Z,2.83
2022-10-20T15:46:20.479Z,2.74
2022-10-20T15:48:27.124Z,2.75
2022-10-20T15:50:29.908Z,2.68
2022-10-20T15:52:32.500Z,2.58
2022-10-20T15:54:34.633Z,2.59
2022-10-20T15:56:37.068Z,2.54
2022-10-20T15:58:39.957Z,2.51
2022-10-20T16:00:42.637Z,2.42
2022-10-20T16:02:44.777Z,2.27
2022-10-20T16:04:47.153Z,2.02
2022-10-20T16:06:53.069Z,1.99
2022-10-20T16:08:58.368Z,1.88
2022-10-20T16:11:00.489Z,1.68
2022-10-20T16:13:03.443Z,1.72
2022-10-20T16:15:10.481Z,1.60
2022-10-20T16:17:15.027Z,1.51
2022-10-20T16:19:17.046Z,1.39
2022-10-20T16:21:19.369Z,1.40
2022-10-20T16:23:22.441Z,1.20
2022-10-20T16:25:24.458Z,1.27
2022-10-20T16:27:26.891Z,1.08
2022-10-20T16:29:29.107Z,1.14
2022-10-20T16:31:31.806Z,0.80
2022-10-20T16:33:34.962Z,0.77
2022-10-20T16:35:44.119Z,1.04
2022-10-20T16:37:46.391Z,0.87
2022-10-20T16:39:50.187Z,0.95
2022-10-20T16:41:52.245Z,0.87
2022-10-20T16:43:57.495Z,0.88
2022-10-20T16:46:08.618Z,0.88
2022-10-20T16:48:13.592Z,0.89
2022-10-20T16:50:15.753Z,0.88
2022-10-20T16:52:18.299Z,0.94
2022-10-20T16:54:21.280Z,1.05
2022-10-20T16:56:24.947Z,1.04
2022-10-20T16:58:27.880Z,1.27
2022-10-20T17:00:30.357Z,1.37
2022-10-20T17:02:34.113Z,1.43
2022-10-20T17:04:38.811Z,1.46
2022-10-20T17:06:41.075Z,1.51
2022-10-20T17:08:43.447Z,1.59
2022-10-20T17:10:47.756Z,1.59
2022-10-20T17:14:53.115Z,1.45
2022-10-20T17:16:55.251Z,1.77
2022-10-20T17:18:59.866Z,1.69
2022-10-20T17:21:02.466Z,1.88
2022-10-20T17:23:05.338Z,1.95
2022-10-20T17:25:15.176Z,2.00
2022-10-20T17:27:17.686Z,1.99
2022-10-20T17:29:25.925Z,1.96
2022-10-20T17:31:32.038Z,1.84
2022-10-20T17:33:36.964Z,2.06
2022-10-20T17:35:39.663Z,2.01
2022-10-20T17:37:42.029Z,2.17
2022-10-20T17:39:44.324Z,2.14
2022-10-20T17:41:47.243Z,1.99
2022-10-20T17:43:49.730Z,2.18
2022-10-20T17:46:03.688Z,1.91
2022-10-20T17:48:06.331Z,2.02
2022-10-20T17:52:11.710Z,2.07
2022-10-20T17:54:14.758Z,2.00
2022-10-20T17:56:19.055Z,2.37
2022-10-20T17:58:21.473Z,2.21
2022-10-20T18:00:43.990Z,2.36
2022-10-20T18:02:50.136Z,2.40
2022-10-20T18:04:52.577Z,2.26
2022-10-20T18:06:55.567Z,2.22
2022-10-20T18:09:00.590Z,2.40
2022-10-20T18:11:03.245Z,2.35
2022-10-20T18:13:06.053Z,2.18
2022-10-20T18:15:09.334Z,2.25
2022-10-20T18:17:11.894Z,2.27
2022-10-20T18:19:15.587Z,2.21
2022-10-20T18:21:19.947Z,2.12
2022-10-20T18:23:29.772Z,2.04
2022-10-20T18:25:36.454Z,2.08
2022-10-20T18:27:47.500Z,2.07
2022-10-20T18:29:58.259Z,2.15
2022-10-20T18:32:00.633Z,2.15
2022-10-20T18:34:18.665Z,2.06
2022-10-20T18:36:21.532Z,2.10
2022-10-20T18:38:23.869Z,2.06
2022-10-20T18:40:26.390Z,2.04
2022-10-20T18:42:43.959Z,2.09
2022-10-20T18:44:54.548Z,2.04
2022-10-20T18:46:57.864Z,1.86
2022-10-20T18:49:07.205Z,1.91
2022-10-20T18:51:12.158Z,1.96
2022-10-20T18:53:16.750Z,1.89
2022-10-20T18:55:19.004Z,1.73
2022-10-20T18:57:21.148Z,1.84
2022-10-20T18:59:23.362Z,1.79
2022-10-20T19:01:29.318Z,1.84
2022-10-20T19:03:32.255Z,1.83
2022-10-20T19:05:37.738Z,1.75
2022-10-20T19:07:40.092Z,1.82
2022-10-20T19:09:42.595Z,1.78
2022-10-20T19:11:46.032Z,1.74
2022-10-20T19:13:48.713Z,1.66
2022-10-20T19:15:51.091Z,1.72
2022-10-20T19:18:11.461Z,1.62
2022-10-20T19:20:13.565Z,1.68
2022-10-20T19:22:16.897Z,1.68
2022-10-20T19:24:22.691Z,1.65
2022-10-20T19:26:57.004Z,1.61
2022-10-20T19:29:15.202Z,1.56
2022-10-20T19:31:38.775Z,1.52
2022-10-20T19:33:40.958Z,1.46
2022-10-20T19:35:43.147Z,1.42
2022-10-20T19:38:30.646Z,1.42
2022-10-20T19:40:39.517Z,1.43
2022-10-20T19:42:41.615Z,1.32
2022-10-20T19:44:45.476Z,1.40
2022-10-20T19:46:50.410Z,1.42
2022-10-20T19:48:52.824Z,1.40
2022-10-20T19:50:54.951Z,1.39
2022-10-20T19:52:58.839Z,1.34
2022-10-20T19:55:01.414Z,1.31
2022-10-20T19:57:06.404Z,1.29
2022-10-20T19:59:09.019Z,1.25
2022-10-20T20:01:11.622Z,1.26
2022-10-20T20:03:14.390Z,1.22
2022-10-20T20:05:16.880Z,1.26
2022-10-20T20:07:19.090Z,1.30
2022-10-20T20:09:21.364Z,1.20
2022-10-20T20:11:30.908Z,1.26
2022-10-20T20:13:33.450Z,1.20
2022-10-20T20:15:35.517Z,1.17
2022-10-20T20:17:37.985Z,1.06
2022-10-20T20:19:40.719Z,1.10
2022-10-20T20:21:43.271Z,1.07
2022-10-20T20:24:01.618Z,0.98
2022-10-20T20:26:05.240Z,0.96
2022-10-20T20:28:08.522Z,1.02
2022-10-20T20:30:10.959Z,1.11
2022-10-20T20:32:12.935Z,1.17
2022-10-20T20:34:15.797Z,1.09
2022-10-20T20:36:17.860Z,1.16
2022-10-20T20:38:19.945Z,1.12
2022-10-20T20:40:22.158Z,1.02
2022-10-20T20:42:24.372Z,1.23
2022-10-20T20:44:26.469Z,1.10
2022-10-20T20:46:31.363Z,1.28
2022-10-20T20:48:36.168Z,1.24
2022-10-20T20:50:38.290Z,1.30
2022-10-20T20:52:40.344Z,1.32
2022-10-20T20:54:46.013Z,1.21
2022-10-20T20:56:51.097Z,1.25
2022-10-20T20:58:55.338Z,1.41
2022-10-20T21:01:10.704Z,1.32
2022-10-20T21:03:13.913Z,1.38
2022-10-20T21:05:16.122Z,1.37
2022-10-20T21:07:18.576Z,1.41
2022-10-20T21:09:21.439Z,1.28
2022-10-20T21:11:26.962Z,1.41
2022-10-20T21:13:32.040Z,1.38
2022-10-20T21:15:34.450Z,1.29
2022-10-20T21:17:36.545Z,1.35
2022-10-20T21:19:38.786Z,1.33
2022-10-20T21:21:50.726Z,1.30
2022-10-20T21:23:53.945Z,1.28
2022-10-20T21:25:56.186Z,1.26
2022-10-20T21:28:01.003Z,1.16
2022-10-20T21:30:03.602Z,1.16
2022-10-20T21:32:05.955Z,1.22
2022-10-20T21:34:08.455Z,1.15
2022-10-20T21:36:14.766Z,1.23
2022-10-20T21:38:17.206Z,1.24
2022-10-20T21:40:19.874Z,1.25
2022-10-20T21:42:22.004Z,1.25
2022-10-20T21:44:24.170Z,1.15
2022-10-20T21:46:35.950Z,1.14
2022-10-20T21:48:38.130Z,1.28
2022-10-20T21:50:40.182Z,1.29
2022-10-20T21:52:42.437Z,1.27
2022-10-20T21:54:44.431Z,1.30
2022-10-20T21:56:47.319Z,1.29
2022-10-20T21:58:49.469Z,1.28
2022-10-20T22:00:54.151Z,1.29
2022-10-20T22:02:56.370Z,1.36
2022-10-20T22:05:01.087Z,1.35
2022-10-20T22:07:03.345Z,1.32
2022-10-20T22:09:05.824Z,1.44
2022-10-20T22:11:13.488Z,1.41
2022-10-20T22:13:15.754Z,1.30
2022-10-20T22:15:17.851Z,1.32
2022-10-20T22:17:21.344Z,1.33
2022-10-20T22:19:24.559Z,1.37
2022-10-20T22:21:27.878Z,1.42
2022-10-20T22:23:30.195Z,1.46
2022-10-20T22:25:38.527Z,1.52
2022-10-20T22:27:42.609Z,1.49
2022-10-20T22:29:45.307Z,1.58
2022-10-20T22:31:50.002Z,1.54
2022-10-20T22:33:53.977Z,1.53
2022-10-20T22:35:56.100Z,1.51
2022-10-20T22:37:58.152Z,1.53
2022-10-20T22:40:00.712Z,1.51
2022-10-20T22:42:02.886Z,1.50
2022-10-20T22:44:06.069Z,1.47
2022-10-20T22:46:09.109Z,1.35
2022-10-20T22:48:11.316Z,1.43
2022-10-20T22:50:13.483Z,1.46
2022-10-20T22:52:15.656Z,1.42
2022-10-20T22:54:17.791Z,1.46
2022-10-20T22:56:22.311Z,1.36
2022-10-20T22:58:24.485Z,1.45
2022-10-20T23:00:26.689Z,1.43
2022-10-20T23:02:29.781Z,1.44
2022-10-20T23:04:32.107Z,1.42
2022-10-20T23:06:34.794Z,1.44
2022-10-20T23:08:44.843Z,1.48
2022-10-20T23:10:56.611Z,1.42
2022-10-20T23:12:58.799Z,1.46
2022-10-20T23:15:01.051Z,1.36
2022-10-20T23:17:06.330Z,1.43
2022-10-20T23:19:09.469Z,1.25
2022-10-20T23:21:12.320Z,1.41
2022-10-20T23:23:14.706Z,1.42
2022-10-20T23:25:17.457Z,1.39
2022-10-20T23:27:19.894Z,1.38
2022-10-20T23:29:21.831Z,1.49
2022-10-20T23:31:24.605Z,1.51
2022-10-20T23:33:26.712Z,1.49
2022-10-20T23:35:29.333Z,1.45
2022-10-20T23:37:32.219Z,1.43
2022-10-20T23:39:34.844Z,1.59
2022-10-20T23:41:37.027Z,1.56
2022-10-20T23:43:39.523Z,1.60
2022-10-20T23:45:43.342Z,1.59
2022-10-20T23:47:45.920Z,1.58
2022-10-20T23:49:48.922Z,1.58
2022-10-20T23:51:51.053Z,1.57
2022-10-20T23:53:53.309Z,1.58
2022-10-20T23:55:55.455Z,1.55
2022-10-20T23:57:57.690Z,1.52
